sensor_id;sensor_type;location;lat;lon;timestamp;temperature;humidity
51215;DHT22;63849;47.546;19.254;2023-02-14T00:00:40;1.00;88.30
51215;DHT22;63849;47.546;19.254;2023-02-14T00:03:06;1.00;87.70
51215;DHT22;63849;47.546;19.254;2023-02-14T00:05:32;0.90;88.00
51215;DHT22;63849;47.546;19.254;2023-02-14T00:07:58;0.80;88.10
51215;DHT22;63849;47.546;19.254;2023-02-14T00:10:24;0.90;88.00
51215;DHT22;63849;47.546;19.254;2023-02-14T00:12:50;0.90;87.60
51215;DHT22;63849;47.546;19.254;2023-02-14T00:15:16;0.90;87.40
51215;DHT22;63849;47.546;19.254;2023-02-14T00:17:53;0.90;87.30
51215;DHT22;63849;47.546;19.254;2023-02-14T00:20:20;0.90;87.30
51215;DHT22;63849;47.546;19.254;2023-02-14T00:22:46;0.60;87.20
51215;DHT22;63849;47.546;19.254;2023-02-14T00:25:14;0.60;87.50
51215;DHT22;63849;47.546;19.254;2023-02-14T00:27:40;0.50;87.60
51215;DHT22;63849;47.546;19.254;2023-02-14T00:30:07;0.60;87.60
51215;DHT22;63849;47.546;19.254;2023-02-14T00:32:36;0.70;87.30
51215;DHT22;63849;47.546;19.254;2023-02-14T00:35:02;0.80;87.40
51215;DHT22;63849;47.546;19.254;2023-02-14T00:37:27;0.70;87.30
51215;DHT22;63849;47.546;19.254;2023-02-14T00:39:53;0.80;87.80
51215;DHT22;63849;47.546;19.254;2023-02-14T00:42:19;0.80;87.70
51215;DHT22;63849;47.546;19.254;2023-02-14T00:44:45;0.80;87.30
51215;DHT22;63849;47.546;19.254;2023-02-14T00:47:11;0.80;87.40
51215;DHT22;63849;47.546;19.254;2023-02-14T00:49:36;0.70;87.80
51215;DHT22;63849;47.546;19.254;2023-02-14T00:52:02;0.70;87.50
51215;DHT22;63849;47.546;19.254;2023-02-14T00:54:28;0.70;87.10
51215;DHT22;63849;47.546;19.254;2023-02-14T00:56:54;0.60;87.10
51215;DHT22;63849;47.546;19.254;2023-02-14T00:59:20;0.60;87.10
51215;DHT22;63849;47.546;19.254;2023-02-14T01:01:45;0.60;87.00
51215;DHT22;63849;47.546;19.254;2023-02-14T01:04:11;0.60;86.80
51215;DHT22;63849;47.546;19.254;2023-02-14T01:06:37;0.50;86.90
51215;DHT22;63849;47.546;19.254;2023-02-14T01:09:03;0.60;87.10
51215;DHT22;63849;47.546;19.254;2023-02-14T01:11:29;0.60;86.90
51215;DHT22;63849;47.546;19.254;2023-02-14T01:13:56;0.60;86.90
51215;DHT22;63849;47.546;19.254;2023-02-14T01:16:24;0.60;86.80
51215;DHT22;63849;47.546;19.254;2023-02-14T01:18:50;0.50;86.90
51215;DHT22;63849;47.546;19.254;2023-02-14T01:21:24;0.50;87.10
51215;DHT22;63849;47.546;19.254;2023-02-14T01:23:52;0.50;87.00
51215;DHT22;63849;47.546;19.254;2023-02-14T01:26:19;0.50;87.10
51215;DHT22;63849;47.546;19.254;2023-02-14T01:28:45;0.40;86.90
51215;DHT22;63849;47.546;19.254;2023-02-14T01:31:21;0.10;87.50
51215;DHT22;63849;47.546;19.254;2023-02-14T01:33:49;0.20;87.70
51215;DHT22;63849;47.546;19.254;2023-02-14T01:36:18;0.20;87.40
51215;DHT22;63849;47.546;19.254;2023-02-14T01:38:44;0.30;86.90
51215;DHT22;63849;47.546;19.254;2023-02-14T01:41:10;0.30;86.80
51215;DHT22;63849;47.546;19.254;2023-02-14T01:43:50;0.30;86.80
51215;DHT22;63849;47.546;19.254;2023-02-14T01:46:16;0.30;86.80
51215;DHT22;63849;47.546;19.254;2023-02-14T01:48:41;0.20;87.20
51215;DHT22;63849;47.546;19.254;2023-02-14T01:51:07;0.10;87.70
51215;DHT22;63849;47.546;19.254;2023-02-14T01:53:33;0.20;87.10
51215;DHT22;63849;47.546;19.254;2023-02-14T01:56:03;0.20;86.40
51215;DHT22;63849;47.546;19.254;2023-02-14T01:58:31;0.00;86.40
51215;DHT22;63849;47.546;19.254;2023-02-14T02:01:01;0.10;86.80
51215;DHT22;63849;47.546;19.254;2023-02-14T02:03:34;0.00;86.80
51215;DHT22;63849;47.546;19.254;2023-02-14T02:06:38;0.00;86.70
51215;DHT22;63849;47.546;19.254;2023-02-14T02:11:26;0.00;86.90
51215;DHT22;63849;47.546;19.254;2023-02-14T02:13:52;-0.10;87.30
51215;DHT22;63849;47.546;19.254;2023-02-14T02:22:11;0.10;87.10
51215;DHT22;63849;47.546;19.254;2023-02-14T02:28:00;0.10;87.50
51215;DHT22;63849;47.546;19.254;2023-02-14T02:33:59;0.10;87.10
51215;DHT22;63849;47.546;19.254;2023-02-14T02:47:57;0.20;89.50
51215;DHT22;63849;47.546;19.254;2023-02-14T02:50:30;0.20;89.30
51215;DHT22;63849;47.546;19.254;2023-02-14T02:53:22;0.30;88.70
51215;DHT22;63849;47.546;19.254;2023-02-14T02:55:59;0.40;89.20
51215;DHT22;63849;47.546;19.254;2023-02-14T02:59:02;0.40;89.00
51215;DHT22;63849;47.546;19.254;2023-02-14T03:01:36;0.40;88.70
51215;DHT22;63849;47.546;19.254;2023-02-14T03:04:09;0.30;89.20
51215;DHT22;63849;47.546;19.254;2023-02-14T03:06:54;0.40;89.20
51215;DHT22;63849;47.546;19.254;2023-02-14T03:12:28;0.40;88.50
51215;DHT22;63849;47.546;19.254;2023-02-14T03:17:58;0.50;87.80
51215;DHT22;63849;47.546;19.254;2023-02-14T03:21:16;0.40;87.50
51215;DHT22;63849;47.546;19.254;2023-02-14T03:24:16;0.30;87.20
51215;DHT22;63849;47.546;19.254;2023-02-14T03:26:50;0.10;87.40
51215;DHT22;63849;47.546;19.254;2023-02-14T03:29:35;0.10;88.60
51215;DHT22;63849;47.546;19.254;2023-02-14T03:33:00;0.10;88.60
51215;DHT22;63849;47.546;19.254;2023-02-14T03:35:15;0.20;88.80
51215;DHT22;63849;47.546;19.254;2023-02-14T03:40:42;0.60;90.40
51215;DHT22;63849;47.546;19.254;2023-02-14T03:43:11;0.80;90.10
51215;DHT22;63849;47.546;19.254;2023-02-14T03:45:46;0.80;89.60
51215;DHT22;63849;47.546;19.254;2023-02-14T03:48:15;1.00;89.60
51215;DHT22;63849;47.546;19.254;2023-02-14T03:50:45;1.10;89.30
51215;DHT22;63849;47.546;19.254;2023-02-14T03:53:13;1.10;89.50
51215;DHT22;63849;47.546;19.254;2023-02-14T03:58:49;1.10;89.30
51215;DHT22;63849;47.546;19.254;2023-02-14T04:01:22;1.20;88.70
51215;DHT22;63849;47.546;19.254;2023-02-14T04:03:49;1.00;88.50
51215;DHT22;63849;47.546;19.254;2023-02-14T04:06:17;0.80;88.40
51215;DHT22;63849;47.546;19.254;2023-02-14T04:08:44;0.80;88.10
51215;DHT22;63849;47.546;19.254;2023-02-14T04:11:09;0.60;87.60
51215;DHT22;63849;47.546;19.254;2023-02-14T04:13:36;0.60;87.70
51215;DHT22;63849;47.546;19.254;2023-02-14T04:16:03;0.30;87.20
51215;DHT22;63849;47.546;19.254;2023-02-14T04:18:29;0.30;87.50
51215;DHT22;63849;47.546;19.254;2023-02-14T04:21:13;0.20;87.10
51215;DHT22;63849;47.546;19.254;2023-02-14T04:23:39;0.20;87.20
51215;DHT22;63849;47.546;19.254;2023-02-14T04:26:04;0.20;87.20
51215;DHT22;63849;47.546;19.254;2023-02-14T04:28:31;0.10;86.90
51215;DHT22;63849;47.546;19.254;2023-02-14T04:31:00;0.00;87.70
51215;DHT22;63849;47.546;19.254;2023-02-14T04:33:27;0.00;87.50
51215;DHT22;63849;47.546;19.254;2023-02-14T04:35:53;0.00;87.50
51215;DHT22;63849;47.546;19.254;2023-02-14T04:38:19;0.00;87.30
51215;DHT22;63849;47.546;19.254;2023-02-14T04:40:44;0.10;87.10
51215;DHT22;63849;47.546;19.254;2023-02-14T04:43:12;0.00;87.00
51215;DHT22;63849;47.546;19.254;2023-02-14T04:45:38;-0.10;87.30
51215;DHT22;63849;47.546;19.254;2023-02-14T04:48:04;-0.10;87.90
51215;DHT22;63849;47.546;19.254;2023-02-14T04:50:30;-0.10;87.80
51215;DHT22;63849;47.546;19.254;2023-02-14T04:52:56;-0.10;88.00
51215;DHT22;63849;47.546;19.254;2023-02-14T04:55:21;-0.10;88.10
51215;DHT22;63849;47.546;19.254;2023-02-14T04:57:47;0.00;88.10
51215;DHT22;63849;47.546;19.254;2023-02-14T05:00:13;0.00;87.80
51215;DHT22;63849;47.546;19.254;2023-02-14T05:02:39;0.10;89.20
51215;DHT22;63849;47.546;19.254;2023-02-14T05:05:05;0.20;89.20
51215;DHT22;63849;47.546;19.254;2023-02-14T05:07:31;0.30;89.50
51215;DHT22;63849;47.546;19.254;2023-02-14T05:09:57;0.10;88.20
51215;DHT22;63849;47.546;19.254;2023-02-14T05:12:23;-0.10;88.70
51215;DHT22;63849;47.546;19.254;2023-02-14T05:14:49;-0.10;88.80
51215;DHT22;63849;47.546;19.254;2023-02-14T05:17:14;-0.10;88.20
51215;DHT22;63849;47.546;19.254;2023-02-14T05:19:40;-0.20;88.50
51215;DHT22;63849;47.546;19.254;2023-02-14T05:22:06;-0.20;88.30
51215;DHT22;63849;47.546;19.254;2023-02-14T05:24:32;-0.10;88.50
51215;DHT22;63849;47.546;19.254;2023-02-14T05:26:57;0.20;90.60
51215;DHT22;63849;47.546;19.254;2023-02-14T05:29:23;0.40;90.30
51215;DHT22;63849;47.546;19.254;2023-02-14T05:31:49;0.50;89.90
51215;DHT22;63849;47.546;19.254;2023-02-14T05:34:15;0.60;89.50
51215;DHT22;63849;47.546;19.254;2023-02-14T05:36:40;0.60;90.00
51215;DHT22;63849;47.546;19.254;2023-02-14T05:39:06;0.70;89.50
51215;DHT22;63849;47.546;19.254;2023-02-14T05:41:32;0.80;89.90
51215;DHT22;63849;47.546;19.254;2023-02-14T05:43:58;0.80;89.60
51215;DHT22;63849;47.546;19.254;2023-02-14T05:46:23;0.80;89.40
51215;DHT22;63849;47.546;19.254;2023-02-14T05:48:50;0.80;89.20
51215;DHT22;63849;47.546;19.254;2023-02-14T05:51:16;0.70;89.00
51215;DHT22;63849;47.546;19.254;2023-02-14T05:53:41;0.70;89.10
51215;DHT22;63849;47.546;19.254;2023-02-14T05:56:07;0.40;88.50
51215;DHT22;63849;47.546;19.254;2023-02-14T05:58:33;0.50;88.90
51215;DHT22;63849;47.546;19.254;2023-02-14T06:00:59;0.30;88.40
51215;DHT22;63849;47.546;19.254;2023-02-14T06:03:25;0.30;88.30
51215;DHT22;63849;47.546;19.254;2023-02-14T06:05:51;0.20;88.20
51215;DHT22;63849;47.546;19.254;2023-02-14T06:08:17;0.30;87.90
51215;DHT22;63849;47.546;19.254;2023-02-14T06:10:42;0.20;87.50
51215;DHT22;63849;47.546;19.254;2023-02-14T06:13:08;0.30;87.20
51215;DHT22;63849;47.546;19.254;2023-02-14T06:15:36;0.20;87.10
51215;DHT22;63849;47.546;19.254;2023-02-14T06:18:02;0.10;87.20
51215;DHT22;63849;47.546;19.254;2023-02-14T06:20:28;0.20;87.30
51215;DHT22;63849;47.546;19.254;2023-02-14T06:22:54;0.20;87.20
51215;DHT22;63849;47.546;19.254;2023-02-14T06:25:21;0.30;87.10
51215;DHT22;63849;47.546;19.254;2023-02-14T06:27:47;0.30;88.90
51215;DHT22;63849;47.546;19.254;2023-02-14T06:30:14;0.40;88.50
51215;DHT22;63849;47.546;19.254;2023-02-14T06:32:40;0.60;88.90
51215;DHT22;63849;47.546;19.254;2023-02-14T06:35:06;0.80;88.50
51215;DHT22;63849;47.546;19.254;2023-02-14T06:37:33;0.90;88.10
51215;DHT22;63849;47.546;19.254;2023-02-14T06:39:58;1.00;88.00
51215;DHT22;63849;47.546;19.254;2023-02-14T06:42:24;1.20;87.60
51215;DHT22;63849;47.546;19.254;2023-02-14T06:44:50;1.10;86.80
51215;DHT22;63849;47.546;19.254;2023-02-14T06:47:16;1.00;87.50
51215;DHT22;63849;47.546;19.254;2023-02-14T06:49:44;1.00;87.10
51215;DHT22;63849;47.546;19.254;2023-02-14T06:52:10;0.90;87.20
51215;DHT22;63849;47.546;19.254;2023-02-14T06:54:36;1.10;87.50
51215;DHT22;63849;47.546;19.254;2023-02-14T06:57:01;1.20;87.30
51215;DHT22;63849;47.546;19.254;2023-02-14T06:59:27;1.30;86.80
51215;DHT22;63849;47.546;19.254;2023-02-14T07:01:53;1.40;86.60
51215;DHT22;63849;47.546;19.254;2023-02-14T07:04:22;1.60;86.30
51215;DHT22;63849;47.546;19.254;2023-02-14T07:06:47;1.60;86.10
51215;DHT22;63849;47.546;19.254;2023-02-14T07:09:13;1.80;86.10
51215;DHT22;63849;47.546;19.254;2023-02-14T07:11:45;1.80;86.00
51215;DHT22;63849;47.546;19.254;2023-02-14T07:14:12;1.60;86.00
51215;DHT22;63849;47.546;19.254;2023-02-14T07:16:41;1.50;86.00
51215;DHT22;63849;47.546;19.254;2023-02-14T07:19:09;1.40;86.30
51215;DHT22;63849;47.546;19.254;2023-02-14T07:21:35;1.60;86.30
51215;DHT22;63849;47.546;19.254;2023-02-14T07:24:01;1.80;86.00
51215;DHT22;63849;47.546;19.254;2023-02-14T07:26:27;1.80;85.80
51215;DHT22;63849;47.546;19.254;2023-02-14T07:28:53;1.90;85.70
51215;DHT22;63849;47.546;19.254;2023-02-14T07:31:19;1.90;85.60
51215;DHT22;63849;47.546;19.254;2023-02-14T07:33:50;2.10;85.60
51215;DHT22;63849;47.546;19.254;2023-02-14T07:36:17;2.20;85.20
51215;DHT22;63849;47.546;19.254;2023-02-14T07:38:43;2.30;84.80
51215;DHT22;63849;47.546;19.254;2023-02-14T07:41:09;2.30;84.70
51215;DHT22;63849;47.546;19.254;2023-02-14T07:43:34;2.40;84.70
51215;DHT22;63849;47.546;19.254;2023-02-14T07:46:01;2.50;84.50
51215;DHT22;63849;47.546;19.254;2023-02-14T07:48:27;2.60;84.50
51215;DHT22;63849;47.546;19.254;2023-02-14T07:50:53;2.70;84.50
51215;DHT22;63849;47.546;19.254;2023-02-14T07:53:22;2.80;84.40
51215;DHT22;63849;47.546;19.254;2023-02-14T07:55:49;2.80;84.00
51215;DHT22;63849;47.546;19.254;2023-02-14T07:58:15;3.00;83.50
51215;DHT22;63849;47.546;19.254;2023-02-14T08:00:41;3.10;82.90
51215;DHT22;63849;47.546;19.254;2023-02-14T08:03:07;3.20;82.60
51215;DHT22;63849;47.546;19.254;2023-02-14T08:05:34;3.30;82.30
51215;DHT22;63849;47.546;19.254;2023-02-14T08:08:01;3.30;82.40
51215;DHT22;63849;47.546;19.254;2023-02-14T08:10:26;3.40;82.30
51215;DHT22;63849;47.546;19.254;2023-02-14T08:12:52;3.50;82.20
51215;DHT22;63849;47.546;19.254;2023-02-14T08:15:42;3.60;81.90
51215;DHT22;63849;47.546;19.254;2023-02-14T08:18:27;3.50;81.60
51215;DHT22;63849;47.546;19.254;2023-02-14T08:20:53;3.70;81.80
51215;DHT22;63849;47.546;19.254;2023-02-14T08:23:21;3.80;80.90
51215;DHT22;63849;47.546;19.254;2023-02-14T08:25:48;3.90;80.50
51215;DHT22;63849;47.546;19.254;2023-02-14T08:28:15;4.00;80.30
51215;DHT22;63849;47.546;19.254;2023-02-14T08:30:42;4.00;79.90
51215;DHT22;63849;47.546;19.254;2023-02-14T08:33:11;4.00;80.20
51215;DHT22;63849;47.546;19.254;2023-02-14T08:35:37;4.30;79.80
51215;DHT22;63849;47.546;19.254;2023-02-14T08:38:05;4.20;80.20
51215;DHT22;63849;47.546;19.254;2023-02-14T08:40:32;4.30;79.70
51215;DHT22;63849;47.546;19.254;2023-02-14T08:42:58;4.30;79.30
51215;DHT22;63849;47.546;19.254;2023-02-14T08:45:24;4.30;78.70
51215;DHT22;63849;47.546;19.254;2023-02-14T08:47:50;4.40;78.80
51215;DHT22;63849;47.546;19.254;2023-02-14T08:50:17;4.40;78.70
51215;DHT22;63849;47.546;19.254;2023-02-14T08:52:44;4.50;78.60
51215;DHT22;63849;47.546;19.254;2023-02-14T08:55:11;4.70;78.40
51215;DHT22;63849;47.546;19.254;2023-02-14T08:57:38;4.60;77.80
51215;DHT22;63849;47.546;19.254;2023-02-14T09:00:06;4.70;77.70
51215;DHT22;63849;47.546;19.254;2023-02-14T09:02:32;4.70;77.50
51215;DHT22;63849;47.546;19.254;2023-02-14T09:04:57;4.80;77.90
51215;DHT22;63849;47.546;19.254;2023-02-14T09:07:23;4.80;78.00
51215;DHT22;63849;47.546;19.254;2023-02-14T09:09:49;4.80;77.10
51215;DHT22;63849;47.546;19.254;2023-02-14T09:12:15;4.90;77.10
51215;DHT22;63849;47.546;19.254;2023-02-14T09:14:44;4.90;76.60
51215;DHT22;63849;47.546;19.254;2023-02-14T09:17:16;5.00;75.90
51215;DHT22;63849;47.546;19.254;2023-02-14T09:19:42;5.10;76.50
51215;DHT22;63849;47.546;19.254;2023-02-14T09:22:09;5.00;76.00
51215;DHT22;63849;47.546;19.254;2023-02-14T09:24:37;5.10;76.30
51215;DHT22;63849;47.546;19.254;2023-02-14T09:27:04;5.30;76.10
51215;DHT22;63849;47.546;19.254;2023-02-14T09:29:31;5.30;75.60
51215;DHT22;63849;47.546;19.254;2023-02-14T09:31:58;5.30;75.90
51215;DHT22;63849;47.546;19.254;2023-02-14T09:34:25;5.40;75.40
51215;DHT22;63849;47.546;19.254;2023-02-14T09:36:52;5.50;75.50
51215;DHT22;63849;47.546;19.254;2023-02-14T09:39:18;5.50;75.20
51215;DHT22;63849;47.546;19.254;2023-02-14T09:41:53;5.50;74.70
51215;DHT22;63849;47.546;19.254;2023-02-14T09:44:35;5.70;74.80
51215;DHT22;63849;47.546;19.254;2023-02-14T09:49:59;5.80;74.40
51215;DHT22;63849;47.546;19.254;2023-02-14T09:52:27;5.80;75.00
51215;DHT22;63849;47.546;19.254;2023-02-14T09:54:57;5.80;74.10
51215;DHT22;63849;47.546;19.254;2023-02-14T10:00:47;5.80;73.30
51215;DHT22;63849;47.546;19.254;2023-02-14T10:06:30;5.80;74.50
51215;DHT22;63849;47.546;19.254;2023-02-14T10:12:01;5.90;73.30
51215;DHT22;63849;47.546;19.254;2023-02-14T10:14:33;6.00;73.10
51215;DHT22;63849;47.546;19.254;2023-02-14T10:17:06;6.30;72.90
51215;DHT22;63849;47.546;19.254;2023-02-14T10:19:38;6.30;71.70
51215;DHT22;63849;47.546;19.254;2023-02-14T10:22:12;6.10;72.10
51215;DHT22;63849;47.546;19.254;2023-02-14T10:27:32;6.00;72.30
51215;DHT22;63849;47.546;19.254;2023-02-14T10:29:59;6.10;72.00
51215;DHT22;63849;47.546;19.254;2023-02-14T10:32:39;6.10;72.70
51215;DHT22;63849;47.546;19.254;2023-02-14T10:35:22;6.10;71.60
51215;DHT22;63849;47.546;19.254;2023-02-14T10:40:57;6.10;71.60
51215;DHT22;63849;47.546;19.254;2023-02-14T10:46:41;6.00;71.10
51215;DHT22;63849;47.546;19.254;2023-02-14T10:58:23;6.20;72.90
51215;DHT22;63849;47.546;19.254;2023-02-14T11:01:00;6.40;71.40
51215;DHT22;63849;47.546;19.254;2023-02-14T11:03:28;6.40;71.00
51215;DHT22;63849;47.546;19.254;2023-02-14T11:05:55;6.40;71.30
51215;DHT22;63849;47.546;19.254;2023-02-14T11:08:35;6.50;71.80
51215;DHT22;63849;47.546;19.254;2023-02-14T11:13:52;6.40;71.30
51215;DHT22;63849;47.546;19.254;2023-02-14T11:16:29;6.40;71.50
51215;DHT22;63849;47.546;19.254;2023-02-14T11:21:40;6.70;69.40
51215;DHT22;63849;47.546;19.254;2023-02-14T11:24:18;6.60;69.20
51215;DHT22;63849;47.546;19.254;2023-02-14T11:26:47;6.70;70.00
51215;DHT22;63849;47.546;19.254;2023-02-14T11:29:17;6.70;69.80
51215;DHT22;63849;47.546;19.254;2023-02-14T11:31:46;6.60;70.30
51215;DHT22;63849;47.546;19.254;2023-02-14T11:34:38;6.70;69.50
51215;DHT22;63849;47.546;19.254;2023-02-14T11:39:46;6.80;70.30
51215;DHT22;63849;47.546;19.254;2023-02-14T11:42:12;6.80;69.10
51215;DHT22;63849;47.546;19.254;2023-02-14T11:44:53;6.70;69.80
51215;DHT22;63849;47.546;19.254;2023-02-14T11:47:32;6.80;70.50
51215;DHT22;63849;47.546;19.254;2023-02-14T11:50:00;6.80;69.40
51215;DHT22;63849;47.546;19.254;2023-02-14T11:52:28;6.80;69.30
51215;DHT22;63849;47.546;19.254;2023-02-14T11:54:57;6.90;68.10
51215;DHT22;63849;47.546;19.254;2023-02-14T11:57:32;7.00;68.10
51215;DHT22;63849;47.546;19.254;2023-02-14T12:00:00;7.00;67.40
51215;DHT22;63849;47.546;19.254;2023-02-14T12:02:36;7.10;67.10
51215;DHT22;63849;47.546;19.254;2023-02-14T12:07:43;6.80;67.70
51215;DHT22;63849;47.546;19.254;2023-02-14T12:24:09;7.00;67.60
51215;DHT22;63849;47.546;19.254;2023-02-14T12:26:48;7.10;67.70
51215;DHT22;63849;47.546;19.254;2023-02-14T12:29:28;7.10;65.70
51215;DHT22;63849;47.546;19.254;2023-02-14T12:32:01;7.20;64.80
51215;DHT22;63849;47.546;19.254;2023-02-14T12:34:30;7.30;64.70
51215;DHT22;63849;47.546;19.254;2023-02-14T12:37:49;7.20;65.30
51215;DHT22;63849;47.546;19.254;2023-02-14T13:08:26;7.20;65.80
51215;DHT22;63849;47.546;19.254;2023-02-14T13:14:40;7.10;66.00
51215;DHT22;63849;47.546;19.254;2023-02-14T13:20:21;7.20;65.70
51215;DHT22;63849;47.546;19.254;2023-02-14T13:22:40;7.10;66.10
51215;DHT22;63849;47.546;19.254;2023-02-14T13:25:40;7.10;66.30
51215;DHT22;63849;47.546;19.254;2023-02-14T13:28:11;7.00;64.50
51215;DHT22;63849;47.546;19.254;2023-02-14T13:30:39;7.00;65.70
51215;DHT22;63849;47.546;19.254;2023-02-14T13:33:31;7.00;65.80
51215;DHT22;63849;47.546;19.254;2023-02-14T13:36:06;6.90;66.20
51215;DHT22;63849;47.546;19.254;2023-02-14T13:38:43;6.90;66.30
51215;DHT22;63849;47.546;19.254;2023-02-14T13:41:11;7.00;67.00
51215;DHT22;63849;47.546;19.254;2023-02-14T13:43:47;7.00;66.70
51215;DHT22;63849;47.546;19.254;2023-02-14T13:46:19;7.00;66.80
51215;DHT22;63849;47.546;19.254;2023-02-14T13:48:57;7.00;66.90
51215;DHT22;63849;47.546;19.254;2023-02-14T13:51:43;7.10;66.70
51215;DHT22;63849;47.546;19.254;2023-02-14T13:56:59;7.00;66.40
51215;DHT22;63849;47.546;19.254;2023-02-14T13:59:33;6.90;66.80
51215;DHT22;63849;47.546;19.254;2023-02-14T14:04:50;7.00;66.20
51215;DHT22;63849;47.546;19.254;2023-02-14T14:07:19;6.90;66.70
51215;DHT22;63849;47.546;19.254;2023-02-14T14:17:39;7.00;66.20
51215;DHT22;63849;47.546;19.254;2023-02-14T14:22:59;6.90;66.30
51215;DHT22;63849;47.546;19.254;2023-02-14T14:25:52;6.80;66.50
51215;DHT22;63849;47.546;19.254;2023-02-14T14:28:25;6.80;66.40
51215;DHT22;63849;47.546;19.254;2023-02-14T14:30:52;6.80;66.60
51215;DHT22;63849;47.546;19.254;2023-02-14T14:33:25;6.70;66.30
51215;DHT22;63849;47.546;19.254;2023-02-14T14:35:55;6.70;66.00
51215;DHT22;63849;47.546;19.254;2023-02-14T14:38:21;6.70;65.00
51215;DHT22;63849;47.546;19.254;2023-02-14T14:40:48;6.60;64.90
51215;DHT22;63849;47.546;19.254;2023-02-14T14:43:31;6.70;64.80
51215;DHT22;63849;47.546;19.254;2023-02-14T14:45:59;6.70;64.50
51215;DHT22;63849;47.546;19.254;2023-02-14T14:48:41;6.70;64.80
51215;DHT22;63849;47.546;19.254;2023-02-14T14:51:13;6.60;64.50
51215;DHT22;63849;47.546;19.254;2023-02-14T14:53:51;6.50;65.10
51215;DHT22;63849;47.546;19.254;2023-02-14T14:56:26;6.50;64.80
51215;DHT22;63849;47.546;19.254;2023-02-14T14:58:55;6.40;65.30
51215;DHT22;63849;47.546;19.254;2023-02-14T15:01:35;6.30;65.60
51215;DHT22;63849;47.546;19.254;2023-02-14T15:04:24;6.30;65.60
51215;DHT22;63849;47.546;19.254;2023-02-14T15:06:50;6.30;65.80
51215;DHT22;63849;47.546;19.254;2023-02-14T15:09:20;6.20;65.60
51215;DHT22;63849;47.546;19.254;2023-02-14T15:11:47;6.20;65.80
51215;DHT22;63849;47.546;19.254;2023-02-14T15:14:39;6.10;65.90
51215;DHT22;63849;47.546;19.254;2023-02-14T15:17:24;6.10;66.30
51215;DHT22;63849;47.546;19.254;2023-02-14T15:19:54;6.10;65.60
51215;DHT22;63849;47.546;19.254;2023-02-14T15:25:31;6.10;65.30
51215;DHT22;63849;47.546;19.254;2023-02-14T15:27:58;6.10;65.50
51215;DHT22;63849;47.546;19.254;2023-02-14T15:30:29;6.10;65.60
51215;DHT22;63849;47.546;19.254;2023-02-14T15:33:00;6.00;66.20
51215;DHT22;63849;47.546;19.254;2023-02-14T15:35:30;5.90;66.60
51215;DHT22;63849;47.546;19.254;2023-02-14T15:38:00;5.80;67.10
51215;DHT22;63849;47.546;19.254;2023-02-14T15:40:30;5.70;67.40
51215;DHT22;63849;47.546;19.254;2023-02-14T15:43:11;5.60;67.80
51215;DHT22;63849;47.546;19.254;2023-02-14T15:45:38;5.50;68.30
51215;DHT22;63849;47.546;19.254;2023-02-14T15:48:26;5.40;68.60
51215;DHT22;63849;47.546;19.254;2023-02-14T15:50:55;5.30;69.40
51215;DHT22;63849;47.546;19.254;2023-02-14T15:53:41;5.20;69.70
51215;DHT22;63849;47.546;19.254;2023-02-14T15:56:21;5.20;70.00
51215;DHT22;63849;47.546;19.254;2023-02-14T15:59:01;5.10;70.30
51215;DHT22;63849;47.546;19.254;2023-02-14T16:01:28;5.10;70.50
51215;DHT22;63849;47.546;19.254;2023-02-14T16:03:57;4.90;70.80
51215;DHT22;63849;47.546;19.254;2023-02-14T16:06:39;4.80;71.10
51215;DHT22;63849;47.546;19.254;2023-02-14T16:09:25;4.80;71.40
51215;DHT22;63849;47.546;19.254;2023-02-14T16:11:51;4.70;71.70
51215;DHT22;63849;47.546;19.254;2023-02-14T16:14:35;4.60;71.80
51215;DHT22;63849;47.546;19.254;2023-02-14T16:17:06;4.50;72.00
51215;DHT22;63849;47.546;19.254;2023-02-14T16:19:40;4.50;72.30
51215;DHT22;63849;47.546;19.254;2023-02-14T16:22:11;4.40;72.40
51215;DHT22;63849;47.546;19.254;2023-02-14T16:24:37;4.40;72.70
51215;DHT22;63849;47.546;19.254;2023-02-14T16:27:05;4.30;72.90
51215;DHT22;63849;47.546;19.254;2023-02-14T16:29:34;4.30;73.10
51215;DHT22;63849;47.546;19.254;2023-02-14T16:32:12;4.20;73.40
51215;DHT22;63849;47.546;19.254;2023-02-14T16:34:41;4.00;74.00
51215;DHT22;63849;47.546;19.254;2023-02-14T16:37:16;4.00;74.20
51215;DHT22;63849;47.546;19.254;2023-02-14T16:39:42;3.90;74.30
51215;DHT22;63849;47.546;19.254;2023-02-14T16:42:14;3.90;74.30
51215;DHT22;63849;47.546;19.254;2023-02-14T16:44:41;3.80;74.70
51215;DHT22;63849;47.546;19.254;2023-02-14T16:47:15;3.80;75.00
51215;DHT22;63849;47.546;19.254;2023-02-14T16:49:40;3.70;75.10
51215;DHT22;63849;47.546;19.254;2023-02-14T16:52:12;3.70;75.20
51215;DHT22;63849;47.546;19.254;2023-02-14T16:54:39;3.60;75.40
51215;DHT22;63849;47.546;19.254;2023-02-14T16:57:05;3.60;75.60
51215;DHT22;63849;47.546;19.254;2023-02-14T16:59:31;3.40;76.00
51215;DHT22;63849;47.546;19.254;2023-02-14T17:01:57;3.40;76.30
51215;DHT22;63849;47.546;19.254;2023-02-14T17:04:23;3.30;76.30
51215;DHT22;63849;47.546;19.254;2023-02-14T17:06:52;3.30;76.80
51215;DHT22;63849;47.546;19.254;2023-02-14T17:09:22;3.30;76.70
51215;DHT22;63849;47.546;19.254;2023-02-14T17:11:55;3.20;76.90
51215;DHT22;63849;47.546;19.254;2023-02-14T17:14:25;3.20;76.60
51215;DHT22;63849;47.546;19.254;2023-02-14T17:16:52;3.20;76.40
51215;DHT22;63849;47.546;19.254;2023-02-14T17:19:22;3.10;76.40
51215;DHT22;63849;47.546;19.254;2023-02-14T17:21:47;3.00;76.80
51215;DHT22;63849;47.546;19.254;2023-02-14T17:24:13;2.90;77.20
51215;DHT22;63849;47.546;19.254;2023-02-14T17:26:40;2.90;77.20
51215;DHT22;63849;47.546;19.254;2023-02-14T17:29:06;3.00;77.40
51215;DHT22;63849;47.546;19.254;2023-02-14T17:31:33;2.80;77.30
51215;DHT22;63849;47.546;19.254;2023-02-14T17:33:59;2.80;78.00
51215;DHT22;63849;47.546;19.254;2023-02-14T17:36:25;2.80;77.90
51215;DHT22;63849;47.546;19.254;2023-02-14T17:38:52;2.80;78.00
51215;DHT22;63849;47.546;19.254;2023-02-14T17:41:24;2.80;77.90
51215;DHT22;63849;47.546;19.254;2023-02-14T17:43:51;2.80;78.00
51215;DHT22;63849;47.546;19.254;2023-02-14T17:46:20;2.80;78.10
51215;DHT22;63849;47.546;19.254;2023-02-14T17:48:47;2.70;78.20
51215;DHT22;63849;47.546;19.254;2023-02-14T17:51:15;2.60;78.40
51215;DHT22;63849;47.546;19.254;2023-02-14T17:53:41;2.50;78.80
51215;DHT22;63849;47.546;19.254;2023-02-14T17:56:10;2.50;79.00
51215;DHT22;63849;47.546;19.254;2023-02-14T17:58:37;2.50;79.10
51215;DHT22;63849;47.546;19.254;2023-02-14T18:01:07;2.60;78.60
51215;DHT22;63849;47.546;19.254;2023-02-14T18:03:34;2.50;78.30
51215;DHT22;63849;47.546;19.254;2023-02-14T18:06:01;2.40;78.90
51215;DHT22;63849;47.546;19.254;2023-02-14T18:08:35;2.30;78.90
51215;DHT22;63849;47.546;19.254;2023-02-14T18:11:09;2.30;79.10
51215;DHT22;63849;47.546;19.254;2023-02-14T18:13:35;2.30;79.30
51215;DHT22;63849;47.546;19.254;2023-02-14T18:16:03;2.20;79.80